Time;durP1;ratioP1;P1;durP2;ratioP2;P2;SDS_P1;SDS_P2;PMS_P1;PMS_P2;Temp;Humidity;BMP_temperature;BMP_pressure;BME280_temperature;BME280_humidity;BME280_pressure;Samples;Min_cycle;Max_cycle;Signal;HPM_P1;HPM_P2
2021/11/20 00:00:08;;;;;;;;;;;;;;;21.86;51.77;100237.59;2076550;28;1973;-64
2021/11/20 00:01:10;;;;;;;;;;;;;;;21.83;52.25;100242.22;2076597;28;1197;-63
2021/11/20 00:02:10;;;;;;;;;;;;;;;21.91;50.65;100250.84;2076574;28;1087;-63
2021/11/20 00:03:11;;;;;;;;;;;;;;;21.90;50.10;100249.97;2076300;28;823;-63
2021/11/20 00:04:11;;;;;;;;;;;;;;;21.89;53.96;100250.91;2076485;28;1423;-63
2021/11/20 00:05:13;;;;;;;;;;;;;;;21.82;52.48;100256.66;2076590;28;1226;-63
2021/11/20 00:06:16;;;;;;;;;;;;;;;21.81;53.82;100263.00;2076500;28;791;-64
2021/11/20 00:07:18;;;;;;;;;;;;;;;21.88;49.83;100278.84;2076559;28;1040;-63
2021/11/20 00:08:19;;;;;;;;;;;;;;;21.90;51.94;100260.75;2076391;28;776;-63
2021/11/20 00:09:20;;;;;;;;;;;;;;;21.81;51.35;100265.69;2067767;28;1324;-63
2021/11/20 00:10:22;;;;;;;;;;;;;;;21.88;51.64;100280.63;2067828;28;891;-63
2021/11/20 00:11:23;;;;;;;;;;;;;;;21.75;55.11;100292.03;2076207;28;842;-63
2021/11/20 00:12:26;;;;;;;;;;;;;;;21.79;51.63;100291.84;2067741;28;852;-64
2021/11/20 00:13:26;;;;;;;;;;;;;;;21.81;50.29;100287.25;2068126;28;965;-63
2021/11/20 00:14:27;;;;;;;;;;;;;;;21.76;52.58;100291.09;2076540;28;787;-63
2021/11/20 00:15:31;;;;;;;;;;;;;;;21.75;53.13;100305.50;2076484;28;799;-63
2021/11/20 00:16:32;;;;;;;;;;;;;;;21.74;51.73;100297.47;2076375;28;871;-64
2021/11/20 00:17:32;;;;;;;;;;;;;;;21.79;50.05;100294.56;2076478;28;970;-63
2021/11/20 00:18:33;;;;;;;;;;;;;;;21.66;52.37;100292.47;2076527;28;679;-64
2021/11/20 00:19:33;;;;;;;;;;;;;;;21.61;52.94;100289.06;2076344;28;821;-63
2021/11/20 00:20:35;;;;;;;;;;;;;;;21.67;52.59;100299.59;2076164;28;1957;-64
2021/11/20 00:21:40;;;;;;;;;;;;;;;21.71;51.01;100298.50;2076533;28;756;-63
2021/11/20 00:22:42;;;;;;;;;;;;;;;21.67;50.92;100286.13;2076415;28;786;-63
2021/11/20 00:23:45;;;;;;;;;;;;;;;21.62;52.64;100301.63;2076396;28;899;-63
2021/11/20 00:24:47;;;;;;;;;;;;;;;21.62;52.86;100298.94;2076454;28;989;-64
2021/11/20 00:25:52;;;;;;;;;;;;;;;21.57;53.24;100322.50;2076240;28;1760;-63
2021/11/20 00:26:53;;;;;;;;;;;;;;;21.66;53.29;100322.09;2076493;28;816;-63
2021/11/20 00:27:54;;;;;;;;;;;;;;;21.73;49.65;100312.78;2076217;28;819;-63
2021/11/20 00:31:06;;;;;;;;;;;;;;;21.64;51.59;100339.28;2076112;28;767;-64
2021/11/20 00:32:10;;;;;;;;;;;;;;;21.68;51.82;100344.47;2076445;28;685;-63
2021/11/20 00:33:10;;;;;;;;;;;;;;;21.67;51.89;100341.84;2076334;28;890;-63
2021/11/20 00:34:12;;;;;;;;;;;;;;;21.73;51.79;100347.84;2076291;28;1153;-64
2021/11/20 00:35:14;;;;;;;;;;;;;;;21.66;51.31;100345.47;2076362;28;1040;-64
2021/11/20 00:36:15;;;;;;;;;;;;;;;21.60;51.45;100349.31;2076096;28;1037;-63
2021/11/20 00:37:15;;;;;;;;;;;;;;;21.69;50.84;100348.91;2076337;28;837;-63
2021/11/20 00:38:15;;;;;;;;;;;;;;;21.66;51.65;100349.06;2076196;28;1194;-63
2021/11/20 00:39:17;;;;;;;;;;;;;;;21.62;50.56;100358.22;2076009;28;724;-63
2021/11/20 00:40:22;;;;;;;;;;;;;;;21.58;51.78;100361.97;2076204;28;1886;-63
2021/11/20 00:41:24;;;;;;;;;;;;;;;21.60;53.37;100357.38;2076305;28;784;-63
2021/11/20 00:42:24;;;;;;;;;;;;;;;21.58;50.26;100357.44;2076248;28;871;-63
2021/11/20 00:43:25;;;;;;;;;;;;;;;21.66;50.02;100353.56;2076277;28;899;-63
2021/11/20 00:44:25;;;;;;;;;;;;;;;21.71;49.87;100348.84;2075925;28;879;-63
2021/11/20 00:45:26;;;;;;;;;;;;;;;21.67;51.92;100361.59;2076284;28;815;-63
2021/11/20 00:46:28;;;;;;;;;;;;;;;21.67;50.54;100364.28;2076225;28;839;-63
2021/11/20 00:47:28;;;;;;;;;;;;;;;21.67;50.15;100364.28;2076025;28;780;-63
2021/11/20 00:48:28;;;;;;;;;;;;;;;21.59;51.18;100377.19;2076165;28;791;-63
2021/11/20 00:49:29;;;;;;;;;;;;;;;21.61;50.98;100394.19;2076237;28;874;-64
2021/11/20 00:50:30;;;;;;;;;;;;;;;21.61;50.38;100383.41;2076169;28;842;-63
2021/11/20 00:51:31;;;;;;;;;;;;;;;21.59;52.32;100380.75;2076217;28;986;-64
2021/11/20 00:52:31;;;;;;;;;;;;;;;21.55;51.29;100379.13;2067305;28;1201;-63
2021/11/20 00:53:31;;;;;;;;;;;;;;;21.51;53.09;100384.75;2067403;28;819;-64
2021/11/20 00:54:32;;;;;;;;;;;;;;;21.53;51.35;100383.72;2076119;28;1037;-63
2021/11/20 00:55:33;;;;;;;;;;;;;;;21.44;52.23;100381.47;2076191;28;868;-63
2021/11/20 00:56:34;;;;;;;;;;;;;;;21.56;50.63;100388.13;2076005;28;1126;-63
2021/11/20 00:57:34;;;;;;;;;;;;;;;21.57;50.71;100387.16;2076204;28;851;-63
2021/11/20 00:58:35;;;;;;;;;;;;;;;21.57;51.44;100396.13;2076058;28;776;-63
2021/11/20 00:59:36;;;;;;;;;;;;;;;21.56;51.30;100396.19;2076182;28;941;-64
2021/11/20 01:00:44;;;;;;;;;;;;;;;21.53;51.72;100388.25;2076008;28;1902;-63
2021/11/20 01:01:47;;;;;;;;;;;;;;;21.48;53.48;100393.88;2076084;28;826;-63
2021/11/20 01:02:47;;;;;;;;;;;;;;;21.44;51.71;100392.25;2076155;28;819;-63
2021/11/20 01:03:47;;;;;;;;;;;;;;;21.39;53.44;100396.97;2075784;28;768;-63
2021/11/20 01:04:48;;;;;;;;;;;;;;;21.45;54.19;100381.38;2076134;28;799;-63
2021/11/20 01:05:48;;;;;;;;;;;;;;;21.32;52.37;100386.44;2076129;28;978;-63
2021/11/20 01:06:49;;;;;;;;;;;;;;;21.43;51.71;100383.25;2075908;28;997;-63
2021/11/20 01:07:49;;;;;;;;;;;;;;;21.41;52.08;100395.06;2076018;28;780;-63
2021/11/20 01:08:52;;;;;;;;;;;;;;;21.48;53.28;100392.03;2075914;28;982;-63
2021/11/20 01:09:52;;;;;;;;;;;;;;;21.49;50.15;100392.88;2076022;28;851;-63
2021/11/20 01:10:54;;;;;;;;;;;;;;;21.45;51.72;100391.31;2075990;28;1292;-63
2021/11/20 01:11:57;;;;;;;;;;;;;;;21.39;51.63;100392.44;2075761;28;1532;-63
2021/11/20 01:12:58;;;;;;;;;;;;;;;21.37;51.53;100390.75;2076020;28;997;-63
2021/11/20 01:13:59;;;;;;;;;;;;;;;21.38;53.12;100398.75;2076004;28;840;-63
2021/11/20 01:15:00;;;;;;;;;;;;;;;21.39;52.19;100389.72;2075898;28;1041;-63
2021/11/20 01:16:02;;;;;;;;;;;;;;;21.43;52.70;100395.88;2076136;28;981;-63
2021/11/20 01:17:03;;;;;;;;;;;;;;;21.43;50.76;100385.97;2075961;28;717;-63
2021/11/20 01:18:04;;;;;;;;;;;;;;;21.47;51.59;100387.59;2075957;28;1050;-62
2021/11/20 01:19:04;;;;;;;;;;;;;;;21.49;50.93;100403.66;2075979;28;1002;-63
2021/11/20 01:20:06;;;;;;;;;;;;;;;21.43;51.05;100395.88;2075824;28;1902;-63
2021/11/20 01:21:06;;;;;;;;;;;;;;;21.49;51.51;100398.28;2075925;28;1265;-63
2021/11/20 01:22:08;;;;;;;;;;;;;;;21.43;51.43;100399.44;2075943;28;974;-63
2021/11/20 01:23:09;;;;;;;;;;;;;;;21.43;53.20;100393.19;2075828;28;1357;-63
2021/11/20 01:24:10;;;;;;;;;;;;;;;21.41;52.20;100406.72;2075945;28;780;-63
2021/11/20 01:25:12;;;;;;;;;;;;;;;21.41;51.39;100403.16;2075846;28;831;-63
2021/11/20 01:26:12;;;;;;;;;;;;;;;21.30;52.58;100401.81;2075965;28;1232;-63
2021/11/20 01:27:13;;;;;;;;;;;;;;;21.39;50.85;100405.03;2075905;28;918;-63
2021/11/20 01:28:14;;;;;;;;;;;;;;;21.40;51.17;100399.56;2075849;28;1167;-63
2021/11/20 01:29:15;;;;;;;;;;;;;;;21.36;51.42;100405.16;2075947;28;780;-63
2021/11/20 01:30:15;;;;;;;;;;;;;;;21.31;52.32;100410.75;2075887;28;792;-63
2021/11/20 01:31:16;;;;;;;;;;;;;;;21.36;51.15;100406.03;2075894;28;938;-64
2021/11/20 01:32:17;;;;;;;;;;;;;;;21.40;50.75;100402.25;2075969;28;880;-62
2021/11/20 01:33:17;;;;;;;;;;;;;;;21.40;52.48;100402.25;2075766;28;1029;-62
2021/11/20 01:34:18;;;;;;;;;;;;;;;21.40;50.95;100404.09;2075867;28;993;-63
2021/11/20 01:35:18;;;;;;;;;;;;;;;21.38;50.37;100414.06;2075865;28;772;-64
2021/11/20 01:36:21;;;;;;;;;;;;;;;21.38;52.05;100412.22;2075651;28;922;-64
2021/11/20 01:37:22;;;;;;;;;;;;;;;21.32;51.37;100410.69;2075883;28;801;-65
2021/11/20 01:38:22;;;;;;;;;;;;;;;21.43;50.59;100412.91;2075594;28;1183;-65
2021/11/20 01:39:26;;;;;;;;;;;;;;;21.36;51.25;100414.13;2075630;28;802;-64
2021/11/20 01:40:28;;;;;;;;;;;;;;;21.33;51.14;100411.56;2075723;28;1898;-63
2021/11/20 01:41:29;;;;;;;;;;;;;;;21.38;51.50;100405.97;2075834;28;907;-62
2021/11/20 01:42:31;;;;;;;;;;;;;;;21.33;52.17;100408.84;2075633;28;1282;-62
2021/11/20 01:43:32;;;;;;;;;;;;;;;21.28;52.33;100413.56;2075851;28;887;-63
2021/11/20 01:44:36;;;;;;;;;;;;;;;21.27;53.49;100395.66;2075665;28;986;-62
2021/11/20 01:45:44;;;;;;;;;;;;;;;21.35;53.13;100406.97;2075685;28;2057;-62
2021/11/20 01:46:47;;;;;;;;;;;;;;;21.30;51.36;100406.28;2075545;28;1260;-63
2021/11/20 01:47:47;;;;;;;;;;;;;;;21.32;52.07;100416.06;2075769;28;983;-64
2021/11/20 01:49:02;;;;;;;;;;;;;;;21.38;51.53;100417.63;2075745;28;839;-63
2021/11/20 01:50:07;;;;;;;;;;;;;;;21.42;52.81;100413.00;2075334;28;1697;-61
2021/11/20 01:51:11;;;;;;;;;;;;;;;21.48;50.85;100412.72;2075741;28;1008;-59
2021/11/20 01:52:19;;;;;;;;;;;;;;;21.47;52.59;100424.44;2075744;28;783;-61
2021/11/20 01:53:28;;;;;;;;;;;;;;;21.47;52.70;100425.31;2075802;28;851;-61
2021/11/20 01:54:28;;;;;;;;;;;;;;;21.52;51.72;100430.47;2075721;28;1009;-62
2021/11/20 01:55:39;;;;;;;;;;;;;;;21.51;53.45;100441.34;2075715;28;779;-65
2021/11/20 01:56:44;;;;;;;;;;;;;;;21.45;52.76;100437.97;2075548;28;1119;-65
2021/11/20 01:57:50;;;;;;;;;;;;;;;21.44;51.74;100454.22;2075495;28;1049;-64
2021/11/20 01:59:02;;;;;;;;;;;;;;;21.40;52.28;100445.38;2075620;28;958;-64
2021/11/20 02:00:02;;;;;;;;;;;;;;;21.34;52.22;100448.31;2075537;28;2035;-65
2021/11/20 02:01:18;;;;;;;;;;;;;;;21.38;50.91;100452.66;2075139;28;2099;-64
2021/11/20 02:02:25;;;;;;;;;;;;;;;21.39;52.13;100449.00;2075644;28;796;-65
2021/11/20 02:03:29;;;;;;;;;;;;;;;21.38;51.78;100463.41;2075719;28;855;-65
2021/11/20 02:04:41;;;;;;;;;;;;;;;21.38;52.19;100463.41;2075568;28;973;-65
2021/11/20 02:05:49;;;;;;;;;;;;;;;21.41;51.53;100457.91;2075652;28;764;-65
2021/11/20 02:06:53;;;;;;;;;;;;;;;21.40;53.35;100453.47;2075634;28;989;-64
2021/11/20 02:07:53;;;;;;;;;;;;;;;21.41;52.16;100457.91;2075592;28;1041;-65
2021/11/20 02:09:05;;;;;;;;;;;;;;;21.35;51.54;100454.59;2075358;28;985;-65
2021/11/20 02:10:06;;;;;;;;;;;;;;;21.40;51.01;100457.97;2075610;28;799;-65
2021/11/20 02:11:09;;;;;;;;;;;;;;;21.40;52.03;100456.16;2075608;28;847;-64
2021/11/20 02:12:14;;;;;;;;;;;;;;;21.35;52.09;100462.69;2075216;28;820;-65
2021/11/20 02:13:16;;;;;;;;;;;;;;;21.38;51.29;100457.16;2075571;28;875;-64
2021/11/20 02:14:17;;;;;;;;;;;;;;;21.39;51.06;100459.78;2075439;28;851;-65
2021/11/20 02:15:20;;;;;;;;;;;;;;;21.41;51.08;100465.97;2075510;28;878;-65
2021/11/20 02:16:23;;;;;;;;;;;;;;;21.36;51.00;100462.59;2075546;28;1052;-63
2021/11/20 02:17:43;;;;;;;;;;;;;;;21.36;51.84;100467.13;2075521;28;1104;-64
2021/11/20 02:18:48;;;;;;;;;;;;;;;21.34;54.40;100461.78;2074634;28;1207;-65
2021/11/20 02:19:52;;;;;;;;;;;;;;;21.28;52.15;100467.44;2075559;28;1323;-65
2021/11/20 02:21:18;;;;;;;;;;;;;;;21.29;50.67;100464.69;2075420;28;1890;-64
2021/11/20 02:22:38;;;;;;;;;;;;;;;21.26;52.57;100464.81;2066426;28;1057;-65
2021/11/20 02:23:38;;;;;;;;;;;;;;;21.27;50.95;100471.97;2066445;28;934;-64
2021/11/20 02:24:38;;;;;;;;;;;;;;;21.26;52.29;100455.84;2066423;28;1296;-65
2021/11/20 02:25:38;;;;;;;;;;;;;;;21.28;52.34;100462.06;2066207;28;930;-64
2021/11/20 02:26:38;;;;;;;;;;;;;;;21.24;51.35;100461.31;2066269;28;792;-65
2021/11/20 02:27:43;;;;;;;;;;;;;;;21.28;51.91;100454.88;2066530;28;1055;-65
2021/11/20 02:28:44;;;;;;;;;;;;;;;21.35;51.79;100444.69;2066458;28;989;-65
2021/11/20 02:29:47;;;;;;;;;;;;;;;21.30;52.09;100449.41;2066473;28;854;-64
2021/11/20 02:30:48;;;;;;;;;;;;;;;21.18;52.11;100449.00;2066363;28;902;-65
2021/11/20 02:31:50;;;;;;;;;;;;;;;21.25;53.33;100456.78;2066288;28;978;-65
2021/11/20 02:32:59;;;;;;;;;;;;;;;21.30;53.47;100458.38;2066445;28;1036;-65
2021/11/20 02:33:59;;;;;;;;;;;;;;;21.32;51.67;100461.00;2066198;28;1094;-64
2021/11/20 02:34:59;;;;;;;;;;;;;;;21.32;50.40;100474.47;2066475;28;890;-65
2021/11/20 02:36:01;;;;;;;;;;;;;;;21.28;52.07;100470.13;2066355;28;1010;-64
2021/11/20 02:37:01;;;;;;;;;;;;;;;21.26;51.55;100464.81;2066346;28;777;-65
2021/11/20 02:38:03;;;;;;;;;;;;;;;21.39;50.65;100461.63;2065971;28;1848;-64
2021/11/20 02:39:06;;;;;;;;;;;;;;;21.36;50.99;100469.84;2058131;28;1277;-65
2021/11/20 02:40:07;;;;;;;;;;;;;;;21.36;51.76;100469.84;2058259;28;1959;-64
2021/11/20 02:41:09;;;;;;;;;;;;;;;21.30;50.74;100466.44;2058359;28;891;-65
2021/11/20 02:42:12;;;;;;;;;;;;;;;21.24;51.86;100476.59;2058198;28;896;-64
2021/11/20 02:43:12;;;;;;;;;;;;;;;21.26;52.05;100477.41;2058310;28;780;-64
2021/11/20 02:44:13;;;;;;;;;;;;;;;21.30;50.34;100470.94;2058280;28;982;-64
2021/11/20 02:45:18;;;;;;;;;;;;;;;21.27;51.82;100471.97;2058336;28;930;-65
2021/11/20 02:46:21;;;;;;;;;;;;;;;21.25;51.83;100475.66;2058176;28;1775;-64
2021/11/20 02:47:27;;;;;;;;;;;;;;;21.16;52.40;100471.53;2058064;28;1723;-64
2021/11/20 02:48:27;;;;;;;;;;;;;;;21.19;52.36;100468.72;2058219;28;1049;-64
2021/11/20 02:49:28;;;;;;;;;;;;;;;21.29;50.78;100470.09;2058289;28;1108;-64
2021/11/20 02:50:35;;;;;;;;;;;;;;;21.29;51.14;100472.78;2057841;28;922;-65
2021/11/20 02:51:38;;;;;;;;;;;;;;;21.28;50.72;100475.53;2058255;28;801;-64
2021/11/20 02:52:38;;;;;;;;;;;;;;;21.25;52.35;100487.31;2058180;28;974;-65
2021/11/20 02:53:40;;;;;;;;;;;;;;;21.17;53.05;100481.38;2057635;28;960;-64
2021/11/20 02:54:40;;;;;;;;;;;;;;;21.18;51.75;100478.63;2058159;28;851;-64
2021/11/20 02:55:45;;;;;;;;;;;;;;;21.18;51.08;100473.25;2058120;28;785;-64
2021/11/20 02:56:48;;;;;;;;;;;;;;;21.25;50.36;100470.25;2058083;28;1254;-65
2021/11/20 02:57:48;;;;;;;;;;;;;;;21.24;50.61;100474.78;2058138;28;784;-64
2021/11/20 02:58:49;;;;;;;;;;;;;;;21.29;50.61;100480.88;2058219;28;1145;-64
2021/11/20 02:59:49;;;;;;;;;;;;;;;21.27;51.16;100471.06;2062641;28;1378;-64
2021/11/20 03:00:53;;;;;;;;;;;;;;;21.23;52.68;100462.25;2066908;28;1984;-64
2021/11/20 03:01:54;;;;;;;;;;;;;;;21.26;52.24;100464.81;2067013;28;2902;-64
2021/11/20 03:02:54;;;;;;;;;;;;;;;21.20;51.22;100467.78;2067125;28;816;-65
2021/11/20 03:03:54;;;;;;;;;;;;;;;21.20;51.60;100462.38;2066743;28;1279;-63
2021/11/20 03:04:54;;;;;;;;;;;;;;;21.25;51.94;100472.97;2066953;28;982;-64
2021/11/20 03:05:54;;;;;;;;;;;;;;;21.22;52.04;100465.91;2067085;28;836;-64
2021/11/20 03:06:56;;;;;;;;;;;;;;;21.09;51.57;100476.31;2067023;28;1106;-64
2021/11/20 03:07:56;;;;;;;;;;;;;;;21.14;51.62;100482.38;2066961;28;816;-64
2021/11/20 03:08:56;;;;;;;;;;;;;;;21.22;51.04;100478.47;2067067;28;859;-65
2021/11/20 03:09:56;;;;;;;;;;;;;;;21.22;52.97;100470.38;2066701;28;911;-64
2021/11/20 03:10:57;;;;;;;;;;;;;;;21.22;51.94;100473.09;2066940;28;1328;-64
2021/11/20 03:11:58;;;;;;;;;;;;;;;21.14;52.29;100478.81;2067065;28;1245;-64
2021/11/20 03:12:58;;;;;;;;;;;;;;;21.15;51.47;100473.38;2067038;28;882;-64
2021/11/20 03:14:04;;;;;;;;;;;;;;;;;;2066985;28;773;-63
2021/11/20 03:15:05;;;;;;;;;;;;;;;21.23;50.79;100482.91;2067065;28;796;-65
2021/11/20 03:16:05;;;;;;;;;;;;;;;;;;2067047;28;931;-63
2021/11/20 03:17:07;;;;;;;;;;;;;;;21.23;50.68;100493.69;2066989;28;1010;-64
2021/11/20 03:18:07;;;;;;;;;;;;;;;21.22;51.27;100497.31;2066937;28;840;-64
2021/11/20 03:19:08;;;;;;;;;;;;;;;21.19;51.51;100484.88;2067059;28;800;-64
2021/11/20 03:20:10;;;;;;;;;;;;;;;21.16;50.67;100493.97;2066847;28;1975;-64
2021/11/20 03:21:10;;;;;;;;;;;;;;;21.16;51.21;100498.47;2067011;28;780;-65
2021/11/20 03:22:17;;;;;;;;;;;;;;;21.19;52.63;100503.72;2066970;28;990;-64
2021/11/20 03:23:22;;;;;;;;;;;;;;;21.18;51.21;100494.78;2066959;28;789;-64
2021/11/20 03:24:23;;;;;;;;;;;;;;;21.06;51.65;100499.78;2066941;28;993;-64
2021/11/20 03:25:24;;;;;;;;;;;;;;;21.09;51.23;100500.56;2066733;28;871;-64
2021/11/20 03:26:24;;;;;;;;;;;;;;;21.24;51.19;100506.22;2066935;28;800;-64
2021/11/20 03:27:25;;;;;;;;;;;;;;;21.23;51.90;100505.38;2066974;28;982;-65
2021/11/20 03:28:25;;;;;;;;;;;;;;;21.27;51.03;100509.69;2066939;28;867;-63
2021/11/20 03:29:26;;;;;;;;;;;;;;;21.27;51.22;100519.56;2066933;28;1211;-64
2021/11/20 03:30:26;;;;;;;;;;;;;;;21.19;51.55;100501.03;2066301;28;957;-64
2021/11/20 03:31:27;;;;;;;;;;;;;;;21.14;52.18;100503.94;2066652;28;793;-64
2021/11/20 03:32:27;;;;;;;;;;;;;;;21.12;51.91;100503.13;2066888;28;1025;-64
2021/11/20 03:33:27;;;;;;;;;;;;;;;;;;2066827;28;919;-65
2021/11/20 03:34:29;;;;;;;;;;;;;;;21.24;51.12;100514.31;2066882;28;1076;-63
2021/11/20 03:35:30;;;;;;;;;;;;;;;21.20;51.89;100515.41;2066971;28;970;-64
2021/11/20 03:36:30;;;;;;;;;;;;;;;21.25;50.14;100511.56;2066685;28;1355;-64
2021/11/20 03:37:30;;;;;;;;;;;;;;;21.26;50.92;100518.72;2066939;28;914;-65
2021/11/20 03:38:31;;;;;;;;;;;;;;;21.33;50.91;100513.94;2066750;28;1456;-64
2021/11/20 03:39:32;;;;;;;;;;;;;;;21.28;50.51;100524.00;2066802;28;970;-65
2021/11/20 03:40:33;;;;;;;;;;;;;;;21.26;50.00;100516.00;2066785;28;1970;-64
2021/11/20 03:41:33;;;;;;;;;;;;;;;21.24;51.65;100528.66;2066868;28;830;-64
2021/11/20 03:42:33;;;;;;;;;;;;;;;21.19;51.99;100530.66;2066889;28;1053;-64
2021/11/20 03:43:34;;;;;;;;;;;;;;;21.17;50.75;100524.47;2066922;28;1040;-64
2021/11/20 03:44:34;;;;;;;;;;;;;;;21.23;50.31;100532.31;2066714;28;1020;-63
2021/11/20 03:45:35;;;;;;;;;;;;;;;21.29;51.10;100529.34;2066886;28;768;-64
2021/11/20 03:46:37;;;;;;;;;;;;;;;21.20;51.57;100527.03;2066733;28;799;-64
2021/11/20 03:47:37;;;;;;;;;;;;;;;21.16;51.62;100523.59;2066798;28;1053;-64
2021/11/20 03:48:37;;;;;;;;;;;;;;;21.22;51.06;100535.03;2066809;28;1024;-64
2021/11/20 03:49:38;;;;;;;;;;;;;;;21.22;50.47;100529.66;2066583;28;840;-65
2021/11/20 03:50:39;;;;;;;;;;;;;;;21.17;51.90;100535.25;2066852;28;718;-63
2021/11/20 03:51:39;;;;;;;;;;;;;;;21.18;51.91;100543.28;2066871;28;934;-65
2021/11/20 03:52:41;;;;;;;;;;;;;;;21.18;52.85;100542.38;2066445;28;1416;-64
2021/11/20 03:53:41;;;;;;;;;;;;;;;21.14;51.75;100541.66;2066875;28;882;-65
2021/11/20 03:54:42;;;;;;;;;;;;;;;21.16;52.58;100552.34;2066792;28;859;-63
2021/11/20 03:55:43;;;;;;;;;;;;;;;21.16;52.05;100542.47;2066863;28;1318;-64
2021/11/20 03:56:43;;;;;;;;;;;;;;;21.22;51.30;100549.41;2072534;28;1205;-63
2021/11/20 03:57:44;;;;;;;;;;;;;;;21.12;51.40;100554.28;2074969;28;765;-64
2021/11/20 03:58:45;;;;;;;;;;;;;;;21.09;52.64;100559.81;2075018;28;851;-64
2021/11/20 03:59:45;;;;;;;;;;;;;;;21.15;51.54;100555.97;2074972;28;846;-64
2021/11/20 04:00:49;;;;;;;;;;;;;;;21.12;52.17;100562.38;2074663;28;1918;-64
2021/11/20 04:01:49;;;;;;;;;;;;;;;21.07;51.70;100556.28;2074976;28;1348;-64
2021/11/20 04:02:49;;;;;;;;;;;;;;;21.14;50.60;100557.81;2074936;28;831;-63
2021/11/20 04:03:50;;;;;;;;;;;;;;;21.09;51.92;100553.53;2074620;28;1130;-64
2021/11/20 04:04:50;;;;;;;;;;;;;;;21.12;51.97;100559.69;2074932;28;985;-64
2021/11/20 04:05:52;;;;;;;;;;;;;;;21.15;51.00;100559.56;2074844;28;947;-63
2021/11/20 04:06:52;;;;;;;;;;;;;;;21.07;51.81;100567.06;2074881;28;780;-63
2021/11/20 04:07:52;;;;;;;;;;;;;;;21.11;52.00;100566.00;2074908;28;953;-64
2021/11/20 04:08:53;;;;;;;;;;;;;;;21.18;50.58;100564.81;2074903;28;855;-64
2021/11/20 04:09:53;;;;;;;;;;;;;;;21.18;51.48;100564.81;2074551;28;807;-64
2021/11/20 04:10:55;;;;;;;;;;;;;;;21.17;51.30;100557.69;2074857;28;1029;-64
2021/11/20 04:11:55;;;;;;;;;;;;;;;21.21;50.86;100565.59;2074892;28;990;-64
2021/11/20 04:12:55;;;;;;;;;;;;;;;21.19;51.30;100565.69;2074910;28;977;-64
2021/11/20 04:13:56;;;;;;;;;;;;;;;21.07;51.67;100571.56;2074865;28;835;-64
2021/11/20 04:14:56;;;;;;;;;;;;;;;21.06;51.86;100586.84;2074723;28;760;-64
2021/11/20 04:15:56;;;;;;;;;;;;;;;21.18;50.35;100567.53;2074904;28;844;-64
2021/11/20 04:16:56;;;;;;;;;;;;;;;21.19;52.04;100576.47;2074910;28;832;-64
2021/11/20 04:17:57;;;;;;;;;;;;;;;21.12;51.74;100574.94;2074724;28;852;-63
2021/11/20 04:18:57;;;;;;;;;;;;;;;21.07;51.31;100571.56;2074975;28;1216;-64
2021/11/20 04:19:57;;;;;;;;;;;;;;;21.22;51.41;100588.91;2074762;28;1017;-64
2021/11/20 04:20:57;;;;;;;;;;;;;;;21.15;50.25;100574.81;2074498;28;1886;-64
2021/11/20 04:21:58;;;;;;;;;;;;;;;21.13;51.27;100572.22;2074879;28;815;-65
2021/11/20 04:22:58;;;;;;;;;;;;;;;21.15;50.88;100573.03;2074907;28;1201;-64
2021/11/20 04:23:58;;;;;;;;;;;;;;;21.18;51.70;100580.09;2074833;28;846;-64
2021/11/20 04:24:59;;;;;;;;;;;;;;;21.16;50.54;100573.88;2074850;28;807;-64
2021/11/20 04:25:59;;;;;;;;;;;;;;;21.20;51.50;100566.59;2074737;28;1339;-65
2021/11/20 04:26:59;;;;;;;;;;;;;;;21.15;50.75;100574.81;2074817;28;859;-64
2021/11/20 04:27:59;;;;;;;;;;;;;;;21.11;51.57;100576.78;2074755;28;831;-65
2021/11/20 04:28:59;;;;;;;;;;;;;;;21.12;50.89;100566.88;2074816;28;800;-64
2021/11/20 04:30:00;;;;;;;;;;;;;;;21.14;50.66;100563.19;2074818;28;1021;-64
2021/11/20 04:31:00;;;;;;;;;;;;;;;21.17;50.88;100563.06;2074482;28;819;-64
2021/11/20 04:32:00;;;;;;;;;;;;;;;21.15;50.53;100562.25;2074852;28;827;-64
2021/11/20 04:33:01;;;;;;;;;;;;;;;21.22;50.90;100567.38;2074816;28;1191;-64
2021/11/20 04:34:01;;;;;;;;;;;;;;;21.11;52.40;100567.81;2074847;28;848;-64
2021/11/20 04:35:02;;;;;;;;;;;;;;;21.07;51.27;100560.78;2074804;28;1117;-64
2021/11/20 04:36:03;;;;;;;;;;;;;;;21.10;50.50;100566.06;2074722;28;985;-64
2021/11/20 04:37:03;;;;;;;;;;;;;;;21.12;52.16;100565.06;2074804;28;846;-64
2021/11/20 04:38:04;;;;;;;;;;;;;;;21.03;52.71;100571.69;2074829;28;1198;-64
2021/11/20 04:39:04;;;;;;;;;;;;;;;21.09;51.85;100565.19;2074449;28;1348;-64
2021/11/20 04:40:05;;;;;;;;;;;;;;;21.12;52.12;100565.06;2074810;28;918;-65
2021/11/20 04:41:05;;;;;;;;;;;;;;;21.15;51.32;100569.44;2074737;28;1891;-64
2021/11/20 04:42:06;;;;;;;;;;;;;;;21.20;50.38;100561.19;2074963;28;833;-64
2021/11/20 04:43:07;;;;;;;;;;;;;;;21.16;51.76;100557.72;2076269;28;919;-64
2021/11/20 04:44:07;;;;;;;;;;;;;;;21.19;50.79;100557.59;2076277;28;970;-63
2021/11/20 04:45:08;;;;;;;;;;;;;;;21.11;52.56;100551.66;2076244;28;1053;-64
2021/11/20 04:46:09;;;;;;;;;;;;;;;21.07;51.70;100555.41;2076203;28;1162;-64
2021/11/20 04:47:09;;;;;;;;;;;;;;;21.09;50.99;100557.09;2076070;28;879;-64
2021/11/20 04:48:10;;;;;;;;;;;;;;;21.09;51.75;100549.03;2076210;28;793;-64
2021/11/20 04:49:10;;;;;;;;;;;;;;;21.09;51.38;100561.59;2076261;28;843;-64
2021/11/20 04:50:11;;;;;;;;;;;;;;;21.13;51.22;100557.84;2075831;28;768;-64
2021/11/20 04:51:11;;;;;;;;;;;;;;;21.13;52.07;100560.53;2076225;28;986;-64
2021/11/20 04:52:12;;;;;;;;;;;;;;;21.09;51.31;100562.50;2076099;28;1014;-64
2021/11/20 04:53:13;;;;;;;;;;;;;;;21.12;51.11;100557.00;2076284;28;970;-64
2021/11/20 04:54:14;;;;;;;;;;;;;;;21.12;50.51;100566.88;2076040;28;863;-64
2021/11/20 04:55:15;;;;;;;;;;;;;;;21.16;50.90;100560.44;2075897;28;788;-65
2021/11/20 04:56:17;;;;;;;;;;;;;;;21.10;52.06;100556.16;2075900;28;1123;-63
2021/11/20 04:57:17;;;;;;;;;;;;;;;21.06;51.02;100559.94;2076284;28;871;-64
2021/11/20 04:58:17;;;;;;;;;;;;;;;21.11;51.90;100568.69;2076139;28;884;-64
2021/11/20 04:59:18;;;;;;;;;;;;;;;21.03;52.12;100557.34;2076140;28;966;-63
2021/11/20 05:00:24;;;;;;;;;;;;;;;21.14;51.33;100556.91;2076022;28;1973;-64
2021/11/20 05:01:24;;;;;;;;;;;;;;;21.13;51.86;100560.53;2075986;28;1101;-64
2021/11/20 05:02:25;;;;;;;;;;;;;;;21.08;51.76;100563.44;2075967;28;946;-63
2021/11/20 05:03:26;;;;;;;;;;;;;;;21.03;51.52;100562.75;2075891;28;942;-64
2021/11/20 05:04:26;;;;;;;;;;;;;;;21.01;51.78;100565.47;2076043;28;923;-64
2021/11/20 05:05:26;;;;;;;;;;;;;;;21.56;50.86;100569.56;2076087;28;938;-63
2021/11/20 05:06:26;;;;;;;;;;;;;;;21.94;49.41;100574.28;2075986;28;914;-65
2021/11/20 05:07:26;;;;;;;;;;;;;;;22.19;49.26;100557.91;2076165;28;785;-64
2021/11/20 05:08:27;;;;;;;;;;;;;;;22.27;49.13;100564.78;2076065;28;856;-63
2021/11/20 05:09:28;;;;;;;;;;;;;;;22.34;50.03;100553.66;2076092;28;819;-63
2021/11/20 05:10:28;;;;;;;;;;;;;;;22.39;48.03;100557.94;2075975;28;804;-64
2021/11/20 05:11:29;;;;;;;;;;;;;;;22.54;48.15;100557.28;2075765;28;1271;-64
2021/11/20 05:12:30;;;;;;;;;;;;;;;22.59;48.69;100557.94;2076103;28;788;-65
2021/11/20 05:13:30;;;;;;;;;;;;;;;22.62;47.54;100563.19;2075959;28;835;-65
2021/11/20 05:14:30;;;;;;;;;;;;;;;22.68;49.46;100559.31;2075919;28;958;-63
2021/11/20 05:15:32;;;;;;;;;;;;;;;22.68;48.33;100566.56;2076077;28;816;-64
2021/11/20 05:16:32;;;;;;;;;;;;;;;22.76;47.66;100562.53;2075903;28;867;-65
2021/11/20 05:17:32;;;;;;;;;;;;;;;22.79;48.37;100561.53;2076097;28;831;-64
2021/11/20 05:18:33;;;;;;;;;;;;;;;22.88;48.57;100560.22;2075987;28;963;-65
2021/11/20 05:19:33;;;;;;;;;;;;;;;22.91;48.02;100571.78;2076009;28;889;-64
2021/11/20 05:20:33;;;;;;;;;;;;;;;22.94;49.75;100570.72;2075916;28;1957;-62
2021/11/20 05:21:34;;;;;;;;;;;;;;;23.00;47.14;100570.44;2075994;28;974;-63
2021/11/20 05:22:34;;;;;;;;;;;;;;;23.02;47.25;100573.06;2075944;28;799;-64
2021/11/20 05:23:35;;;;;;;;;;;;;;;23.07;47.75;100563.78;2075949;28;836;-64
2021/11/20 05:24:35;;;;;;;;;;;;;;;23.02;47.20;100557.75;2075728;28;772;-62
2021/11/20 05:25:36;;;;;;;;;;;;;;;23.10;46.84;100560.94;2075933;28;1017;-61
2021/11/20 05:26:36;;;;;;;;;;;;;;;23.21;47.44;100567.66;2067167;28;1325;-59